CGMPW CDT5-CYQM
Flight info
| Callsign | CGMPW |
|---|---|
| Flight time | 0h 12m |
| Altitude | 2000 |
| Route | VFR FLIGHT AROUND SE NEW BRUNSWICK / |
| Aircraft | H125/L-VGD/A |
Departure
| Time | 2026-04-20 21:19 |
|---|---|
| Airport | Bouctouche Airport (CDT5) |
Arrival
| Time | 2026-04-20 21:31 |
|---|---|
| Airport | Greater Moncton Roméo LeBlanc International Airport (CYQM) |
| Time | Latitude | Longitude | Altitude | Speed | Heading |
|---|---|---|---|---|---|
| 2026-04-20 21:14 | 46.50864 | -64.69851 | 42 ft | 0 kts | 341° |
| 2026-04-20 21:15 | 46.50867 | -64.69855 | 188 ft | 3 kts | 338° |
| 2026-04-20 21:16 | 46.51207 | -64.69674 | 339 ft | 88 kts | 28° |
| 2026-04-20 21:16 | 46.51863 | -64.69366 | 375 ft | 112 kts | 15° |
| 2026-04-20 21:16 | 46.52679 | -64.69266 | 332 ft | 121 kts | 359° |
| 2026-04-20 21:16 | 46.53491 | -64.69607 | 197 ft | 128 kts | 337° |
| 2026-04-20 21:17 | 46.54165 | -64.70222 | 214 ft | 85 kts | 327° |
| 2026-04-20 21:17 | 46.54450 | -64.70322 | 158 ft | 9 kts | 149° |
| 2026-04-20 21:17 | 46.54311 | -64.70184 | 184 ft | 10 kts | 168° |
| 2026-04-20 21:17 | 46.54311 | -64.70178 | 60 ft | 1 kts | 199° |
| 2026-04-20 21:18 | 46.54326 | -64.70213 | 219 ft | 29 kts | 320° |
| 2026-04-20 21:18 | 46.54223 | -64.70655 | 437 ft | 72 kts | 206° |
| 2026-04-20 21:18 | 46.53545 | -64.70478 | 512 ft | 117 kts | 167° |
| 2026-04-20 21:18 | 46.52682 | -64.70477 | 534 ft | 128 kts | 191° |
| 2026-04-20 21:19 | 46.51799 | -64.70768 | 559 ft | 133 kts | 194° |
| 2026-04-20 21:19 | 46.50922 | -64.71054 | 721 ft | 129 kts | 193° |
| 2026-04-20 21:19 | 46.49990 | -64.71103 | 664 ft | 137 kts | 176° |
| 2026-04-20 21:20 | 46.48160 | -64.70274 | 381 ft | 136 kts | 177° |
| 2026-04-20 21:20 | 46.47700 | -64.70943 | 651 ft | 112 kts | 169° |
| 2026-04-20 21:20 | 46.47754 | -64.69966 | 360 ft | 124 kts | 46° |
| 2026-04-20 21:20 | 46.48007 | -64.69103 | 249 ft | 92 kts | 152° |
| 2026-04-20 21:21 | 46.47620 | -64.69486 | 366 ft | 77 kts | 265° |
| 2026-04-20 21:21 | 46.47506 | -64.70311 | 350 ft | 86 kts | 256° |
| 2026-04-20 21:21 | 46.47361 | -64.71189 | 443 ft | 96 kts | 279° |
| 2026-04-20 21:21 | 46.47375 | -64.72191 | 388 ft | 99 kts | 271° |
| 2026-04-20 21:22 | 46.46970 | -64.72889 | 304 ft | 107 kts | 206° |
| 2026-04-20 21:22 | 46.46293 | -64.73174 | 332 ft | 91 kts | 167° |
| 2026-04-20 21:22 | 46.45818 | -64.72478 | 278 ft | 98 kts | 129° |
| 2026-04-20 21:22 | 46.45481 | -64.71553 | 426 ft | 116 kts | 117° |
| 2026-04-20 21:23 | 46.44741 | -64.71108 | 662 ft | 123 kts | 167° |
| 2026-04-20 21:23 | 46.43887 | -64.70546 | 518 ft | 143 kts | 152° |
| 2026-04-20 21:23 | 46.43019 | -64.69810 | 452 ft | 145 kts | 144° |
| 2026-04-20 21:23 | 46.42496 | -64.68592 | 407 ft | 146 kts | 113° |
| 2026-04-20 21:24 | 46.42130 | -64.67251 | 449 ft | 140 kts | 117° |
| 2026-04-20 21:24 | 46.41361 | -64.66618 | 682 ft | 131 kts | 160° |
| 2026-04-20 21:24 | 46.40591 | -64.65918 | 793 ft | 131 kts | 142° |
| 2026-04-20 21:24 | 46.39797 | -64.65110 | 722 ft | 134 kts | 146° |
| 2026-04-20 21:25 | 46.39146 | -64.64308 | 630 ft | 114 kts | 144° |
| 2026-04-20 21:25 | 46.38538 | -64.63664 | 365 ft | 100 kts | 152° |
| 2026-04-20 21:25 | 46.38233 | -64.63065 | 253 ft | 68 kts | 67° |
| 2026-04-20 21:25 | 46.38392 | -64.62527 | 174 ft | 64 kts | 136° |
| 2026-04-20 21:26 | 46.38106 | -64.62674 | 317 ft | 34 kts | 220° |
| 2026-04-20 21:26 | 46.37851 | -64.62922 | 389 ft | 58 kts | 211° |
| 2026-04-20 21:26 | 46.37527 | -64.63106 | 237 ft | 33 kts | 220° |
| 2026-04-20 21:26 | 46.37377 | -64.63197 | 135 ft | 16 kts | 213° |
| 2026-04-20 21:27 | 46.37335 | -64.63231 | 358 ft | 20 kts | 180° |
| 2026-04-20 21:27 | 46.36889 | -64.63216 | 918 ft | 94 kts | 173° |
| 2026-04-20 21:27 | 46.36252 | -64.63179 | 1697 ft | 93 kts | 178° |
| 2026-04-20 21:27 | 46.35490 | -64.62951 | 1822 ft | 132 kts | 161° |
| 2026-04-20 21:28 | 46.34531 | -64.62603 | 1117 ft | 151 kts | 179° |
| 2026-04-20 21:28 | 46.33593 | -64.62305 | 1044 ft | 135 kts | 158° |
| 2026-04-20 21:28 | 46.32726 | -64.61661 | 867 ft | 144 kts | 155° |
| 2026-04-20 21:28 | 46.31821 | -64.61169 | 932 ft | 122 kts | 188° |
| 2026-04-20 21:29 | 46.31927 | -64.62076 | 1005 ft | 126 kts | 340° |
| 2026-04-20 21:29 | 46.32556 | -64.61636 | 768 ft | 104 kts | 81° |
| 2026-04-20 21:29 | 46.32357 | -64.60631 | 695 ft | 104 kts | 116° |
| 2026-04-20 21:29 | 46.31755 | -64.60130 | 862 ft | 104 kts | 168° |
| 2026-04-20 21:30 | 46.30995 | -64.59786 | 912 ft | 129 kts | 160° |
| 2026-04-20 21:30 | 46.30079 | -64.59338 | 831 ft | 147 kts | 162° |
| 2026-04-20 21:30 | 46.29091 | -64.58851 | 563 ft | 149 kts | 165° |
| 2026-04-20 21:30 | 46.28117 | -64.58445 | 462 ft | 145 kts | 165° |
| 2026-04-20 21:31 | 46.27145 | -64.58040 | 575 ft | 142 kts | 159° |
| 2026-04-20 21:31 | 46.26557 | -64.56922 | 517 ft | 137 kts | 145° |
| 2026-04-20 21:31 | 46.25824 | -64.57220 | 621 ft | 106 kts | 220° |
| 2026-04-20 21:31 | 46.25511 | -64.57773 | 347 ft | 20 kts | 70° |
| 2026-04-20 21:32 | 46.25534 | -64.57604 | 237 ft | 57 kts | 82° |
| 2026-04-20 21:32 | 46.25777 | -64.56947 | 244 ft | 82 kts | 83° |
| 2026-04-20 21:32 | 46.25501 | -64.56269 | 484 ft | 88 kts | 152° |
| 2026-04-20 21:32 | 46.24857 | -64.56190 | 743 ft | 90 kts | 182° |
| 2026-04-20 21:33 | 46.24286 | -64.56419 | 1197 ft | 82 kts | 189° |
| 2026-04-20 21:33 | 46.23602 | -64.56239 | 1280 ft | 130 kts | 143° |
| 2026-04-20 21:33 | 46.23129 | -64.54972 | 1156 ft | 151 kts | 111° |
| 2026-04-20 21:33 | 46.22775 | -64.53557 | 916 ft | 148 kts | 107° |
| 2026-04-20 21:34 | 46.22554 | -64.52234 | 816 ft | 118 kts | 104° |
| 2026-04-20 21:34 | 46.22502 | -64.51502 | 652 ft | 105 kts | 96° |
| 2026-04-20 21:34 | 46.22352 | -64.50251 | 296 ft | 80 kts | 128° |
| 2026-04-20 21:34 | 46.22143 | -64.49987 | 436 ft | 6 kts | 167° |
| 2026-04-20 21:35 | 46.22160 | -64.50009 | 310 ft | 2 kts | 158° |
| 2026-04-20 21:35 | 46.22160 | -64.49997 | 186 ft | 1 kts | 158° |
| 2026-04-20 21:35 | 46.22150 | -64.49977 | 320 ft | 12 kts | 153° |
| 2026-04-20 21:35 | 46.22007 | -64.49929 | 172 ft | 21 kts | 183° |
| 2026-04-20 21:36 | 46.21924 | -64.49947 | 183 ft | 18 kts | 214° |
| 2026-04-20 21:36 | 46.21883 | -64.50009 | 150 ft | 1 kts | 238° |
| 2026-04-20 21:36 | 46.21859 | -64.50033 | 112 ft | 1 kts | 233° |